Time;durP1;ratioP1;P1;durP2;ratioP2;P2;SDS_P1;SDS_P2;PMS_P1;PMS_P2;Temp;Humidity;BMP_temperature;BMP_pressure;BME280_temperature;BME280_humidity;BME280_pressure;Samples;Min_cycle;Max_cycle;Signal;HPM_P1;HPM_P2
2021/03/15 00:00:58;;;;;;;1.75;1.50;;;;;;;;;;5069374;28;20035;-64
2021/03/15 00:03:25;;;;;;;2.22;2.03;;;;;;;;;;5070038;28;20032;-64
2021/03/15 00:05:51;;;;;;;2.45;1.83;;;;;;;;;;5070407;28;20089;-64
2021/03/15 00:08:17;;;;;;;2.08;1.88;;;;;;;;;;5070302;28;20035;-65
2021/03/15 00:10:43;;;;;;;2.13;1.55;;;;;;;;;;5069157;28;20052;-64
2021/03/15 00:13:09;;;;;;;1.88;1.77;;;;;;;;;;5069437;28;20496;-64
2021/03/15 00:15:36;;;;;;;1.58;1.27;;;;;;;;;;5087523;28;20032;-64
2021/03/15 00:18:02;;;;;;;2.22;1.50;;;;;;;;;;5089968;28;20055;-64
2021/03/15 00:20:29;;;;;;;1.85;1.33;;;;;;;;;;5089127;28;20054;-64
2021/03/15 00:22:55;;;;;;;3.22;2.15;;;;;;;;;;5089520;28;20034;-64
2021/03/15 00:25:21;;;;;;;1.73;1.63;;;;;;;;;;5089608;28;20063;-64
2021/03/15 00:27:47;;;;;;;3.05;0.90;;;;;;;;;;5089589;28;20551;-64
2021/03/15 00:30:15;;;;;;;1.60;1.45;;;;;;;;;;5088877;28;20107;-64
2021/03/15 00:32:42;;;;;;;1.20;0.98;;;;;;;;;;5090012;28;20031;-64
2021/03/15 00:35:09;;;;;;;2.47;1.25;;;;;;;;;;5089431;28;20055;-64
2021/03/15 00:37:36;;;;;;;1.90;1.33;;;;;;;;;;5090247;28;20028;-64
2021/03/15 00:40:02;;;;;;;1.33;0.95;;;;;;;;;;5089217;28;20045;-64
2021/03/15 00:42:28;;;;;;;2.28;1.95;;;;;;;;;;5089402;28;20027;-64
2021/03/15 00:44:54;;;;;;;2.60;1.00;;;;;;;;;;5089957;28;20028;-65
2021/03/15 00:47:20;;;;;;;2.22;1.13;;;;;;;;;;5089683;28;20050;-64
2021/03/15 00:49:46;;;;;;;1.30;1.20;;;;;;;;;;5090062;28;20035;-64
2021/03/15 00:52:12;;;;;;;1.60;1.50;;;;;;;;;;5088324;28;20075;-64
2021/03/15 00:54:38;;;;;;;1.45;1.08;;;;;;;;;;5089891;28;20069;-65
2021/03/15 00:57:05;;;;;;;1.55;1.08;;;;;;;;;;5088837;28;20024;-64
2021/03/15 00:59:31;;;;;;;1.63;1.08;;;;;;;;;;5074547;28;20052;-64
2021/03/15 01:01:57;;;;;;;1.85;1.70;;;;;;;;;;5068562;28;20036;-64
2021/03/15 01:04:23;;;;;;;1.90;1.00;;;;;;;;;;5068054;28;20101;-64
2021/03/15 01:06:49;;;;;;;2.53;1.00;;;;;;;;;;5069233;28;20032;-64
2021/03/15 01:09:16;;;;;;;3.13;1.52;;;;;;;;;;5069120;28;20051;-64
2021/03/15 01:11:42;;;;;;;2.45;1.08;;;;;;;;;;5068446;28;20029;-64
2021/03/15 01:14:08;;;;;;;2.60;1.25;;;;;;;;;;5068656;28;20493;-64
2021/03/15 01:16:35;;;;;;;1.10;1.10;;;;;;;;;;5068977;28;20613;-64
2021/03/15 01:19:01;;;;;;;3.15;1.85;;;;;;;;;;5068703;28;20032;-64
2021/03/15 01:21:27;;;;;;;1.77;1.20;;;;;;;;;;5068162;28;20040;-64
2021/03/15 01:23:53;;;;;;;1.95;1.00;;;;;;;;;;5069036;28;20024;-64
2021/03/15 01:26:19;;;;;;;1.70;1.55;;;;;;;;;;5068607;28;20094;-64
2021/03/15 01:28:45;;;;;;;1.17;1.10;;;;;;;;;;5068362;28;20475;-64
2021/03/15 01:31:12;;;;;;;2.40;1.05;;;;;;;;;;5067318;28;20024;-64
2021/03/15 01:33:38;;;;;;;3.97;1.77;;;;;;;;;;5069163;28;20103;-64
2021/03/15 01:36:05;;;;;;;1.40;1.30;;;;;;;;;;5068252;28;20123;-64
2021/03/15 01:38:31;;;;;;;1.15;1.15;;;;;;;;;;5083661;28;20115;-64
2021/03/15 01:40:57;;;;;;;2.38;1.17;;;;;;;;;;5088075;28;20057;-64
2021/03/15 01:43:23;;;;;;;1.58;1.30;;;;;;;;;;5088697;28;20082;-64
2021/03/15 01:45:49;;;;;;;1.13;1.02;;;;;;;;;;5089161;28;20028;-64
2021/03/15 01:48:15;;;;;;;0.95;0.90;;;;;;;;;;5088279;28;20032;-64
2021/03/15 01:50:43;;;;;;;1.15;1.05;;;;;;;;;;5088262;28;20064;-64
2021/03/15 01:53:09;;;;;;;3.03;1.20;;;;;;;;;;5088118;28;20028;-64
2021/03/15 01:55:36;;;;;;;2.10;1.08;;;;;;;;;;5087858;28;20028;-64
2021/03/15 01:58:04;;;;;;;1.70;1.00;;;;;;;;;;5086711;28;20052;-64
2021/03/15 02:00:30;;;;;;;1.00;0.80;;;;;;;;;;5087663;28;20038;-64
2021/03/15 02:03:04;;;;;;;1.10;1.10;;;;;;;;;;5087916;28;20056;-64
2021/03/15 02:05:31;;;;;;;1.35;0.70;;;;;;;;;;5088087;28;20084;-64
2021/03/15 02:07:57;;;;;;;1.13;0.75;;;;;;;;;;5088325;28;20495;-64
2021/03/15 02:10:24;;;;;;;1.27;1.17;;;;;;;;;;5087494;28;20066;-64
2021/03/15 02:12:50;;;;;;;1.08;0.80;;;;;;;;;;5087826;28;20061;-65
2021/03/15 02:15:20;;;;;;;1.63;1.20;;;;;;;;;;5073285;28;20028;-65
2021/03/15 02:18:01;;;;;;;1.10;0.90;;;;;;;;;;5068571;28;20061;-65
2021/03/15 02:20:27;;;;;;;1.65;0.90;;;;;;;;;;5067267;28;20041;-65
2021/03/15 02:23:08;;;;;;;1.65;1.55;;;;;;;;;;5067775;28;20070;-65
2021/03/15 02:25:53;;;;;;;0.90;0.70;;;;;;;;;;5068228;28;20120;-65
2021/03/15 02:28:31;;;;;;;1.23;1.02;;;;;;;;;;5066602;28;20100;-65
2021/03/15 02:31:03;;;;;;;1.20;0.90;;;;;;;;;;5067290;28;20062;-65
2021/03/15 02:33:29;;;;;;;2.83;1.67;;;;;;;;;;5068015;28;20028;-65
2021/03/15 02:35:55;;;;;;;1.92;0.90;;;;;;;;;;5067994;28;20032;-65
2021/03/15 02:38:23;;;;;;;2.78;1.48;;;;;;;;;;5067432;28;20044;-65
2021/03/15 02:40:55;;;;;;;1.55;0.60;;;;;;;;;;5067611;28;20102;-65
2021/03/15 02:43:23;;;;;;;1.75;0.60;;;;;;;;;;5067360;28;20044;-65
2021/03/15 02:45:55;;;;;;;0.80;0.70;;;;;;;;;;5070369;28;20506;-65
2021/03/15 02:48:22;;;;;;;0.70;0.70;;;;;;;;;;5071449;28;20101;-65
2021/03/15 02:50:48;;;;;;;2.63;1.25;;;;;;;;;;5071018;28;20017;-65
2021/03/15 02:53:16;;;;;;;1.35;1.08;;;;;;;;;;5071391;28;20107;-65
2021/03/15 02:55:43;;;;;;;1.27;0.80;;;;;;;;;;5071606;28;20025;-65
2021/03/15 02:58:09;;;;;;;0.75;0.60;;;;;;;;;;5072144;28;20428;-65
2021/03/15 03:00:36;;;;;;;1.70;0.82;;;;;;;;;;5091177;28;20494;-65
2021/03/15 03:03:04;;;;;;;0.57;0.52;;;;;;;;;;5091295;28;20067;-65
2021/03/15 03:05:30;;;;;;;1.15;0.80;;;;;;;;;;5090912;28;20032;-65
2021/03/15 03:07:59;;;;;;;1.02;0.75;;;;;;;;;;5091768;28;20036;-65
2021/03/15 03:10:25;;;;;;;0.68;0.60;;;;;;;;;;5090777;28;20453;-65
2021/03/15 03:12:52;;;;;;;1.70;1.02;;;;;;;;;;5092047;28;20024;-65
2021/03/15 03:15:22;;;;;;;1.42;1.08;;;;;;;;;;5090804;28;20060;-65
2021/03/15 03:17:49;;;;;;;1.83;1.10;;;;;;;;;;5091725;28;20020;-65
2021/03/15 03:20:17;;;;;;;0.73;0.73;;;;;;;;;;5090193;28;20027;-65
2021/03/15 03:22:45;;;;;;;1.35;0.93;;;;;;;;;;5091491;28;20089;-65
2021/03/15 03:25:13;;;;;;;0.80;0.80;;;;;;;;;;5091044;28;20039;-65
2021/03/15 03:27:40;;;;;;;0.98;0.80;;;;;;;;;;5089921;28;20032;-65
2021/03/15 03:30:11;;;;;;;0.73;0.50;;;;;;;;;;5090695;28;20062;-65
2021/03/15 03:32:38;;;;;;;0.90;0.90;;;;;;;;;;5090873;28;20029;-65
2021/03/15 03:35:05;;;;;;;1.83;0.73;;;;;;;;;;5090752;28;20026;-64
2021/03/15 03:37:31;;;;;;;0.40;0.30;;;;;;;;;;5084563;28;20025;-65
2021/03/15 03:39:57;;;;;;;1.00;0.90;;;;;;;;;;5070561;28;20024;-65
2021/03/15 03:42:23;;;;;;;1.27;0.60;;;;;;;;;;5070087;28;20036;-65
2021/03/15 03:44:50;;;;;;;0.52;0.50;;;;;;;;;;5071599;28;20033;-65
2021/03/15 03:47:17;;;;;;;1.60;0.98;;;;;;;;;;5070132;28;20029;-65
2021/03/15 03:49:43;;;;;;;0.55;0.40;;;;;;;;;;5071113;28;20373;-65
2021/03/15 03:52:09;;;;;;;0.93;0.60;;;;;;;;;;5069432;28;20028;-64
2021/03/15 03:54:43;;;;;;;0.45;0.45;;;;;;;;;;5070789;28;20024;-65
2021/03/15 03:57:09;;;;;;;0.50;0.50;;;;;;;;;;5069086;28;20028;-65
2021/03/15 03:59:38;;;;;;;0.52;0.52;;;;;;;;;;5068929;28;20048;-65
2021/03/15 04:02:04;;;;;;;0.57;0.50;;;;;;;;;;5069528;28;20045;-64
2021/03/15 04:04:37;;;;;;;0.60;0.50;;;;;;;;;;5070490;28;20020;-65
2021/03/15 04:07:04;;;;;;;0.57;0.57;;;;;;;;;;5069870;28;20029;-64
2021/03/15 04:09:32;;;;;;;1.55;0.88;;;;;;;;;;5069834;28;20032;-65
2021/03/15 04:12:01;;;;;;;0.40;0.40;;;;;;;;;;5069614;28;20021;-65
2021/03/15 04:14:29;;;;;;;0.65;0.65;;;;;;;;;;5077331;28;20024;-64
2021/03/15 04:16:56;;;;;;;0.50;0.50;;;;;;;;;;5090583;28;20090;-65
2021/03/15 04:19:25;;;;;;;0.55;0.50;;;;;;;;;;5089554;28;20425;-65
2021/03/15 04:21:53;;;;;;;0.60;0.50;;;;;;;;;;5089556;28;20102;-65
2021/03/15 04:24:20;;;;;;;0.63;0.47;;;;;;;;;;5090031;28;20023;-65
2021/03/15 04:26:47;;;;;;;0.65;0.57;;;;;;;;;;5090349;28;20016;-65
2021/03/15 04:29:13;;;;;;;0.57;0.52;;;;;;;;;;5088509;28;20020;-64
2021/03/15 04:31:39;;;;;;;0.47;0.47;;;;;;;;;;5089088;28;20051;-64
2021/03/15 04:34:06;;;;;;;0.75;0.52;;;;;;;;;;5089238;28;20485;-64
2021/03/15 04:36:32;;;;;;;0.68;0.52;;;;;;;;;;5090012;28;20028;-65
2021/03/15 04:38:58;;;;;;;0.60;0.57;;;;;;;;;;5089971;28;20111;-65
2021/03/15 04:41:25;;;;;;;0.63;0.43;;;;;;;;;;5088282;28;20059;-64
2021/03/15 04:43:51;;;;;;;0.90;0.30;;;;;;;;;;5090271;28;20028;-65
2021/03/15 04:46:18;;;;;;;0.93;0.47;;;;;;;;;;5089331;28;20024;-64
2021/03/15 04:48:45;;;;;;;0.40;0.40;;;;;;;;;;5090238;28;20036;-65
2021/03/15 04:51:11;;;;;;;0.47;0.47;;;;;;;;;;5087955;28;20049;-65
2021/03/15 04:53:38;;;;;;;0.40;0.40;;;;;;;;;;5089660;28;20035;-65
2021/03/15 04:56:07;;;;;;;0.68;0.40;;;;;;;;;;5089349;28;20020;-64
2021/03/15 04:58:34;;;;;;;0.85;0.77;;;;;;;;;;5082657;28;20140;-65
2021/03/15 05:01:02;;;;;;;0.40;0.40;;;;;;;;;;5067869;28;20075;-65
2021/03/15 05:03:29;;;;;;;0.30;0.30;;;;;;;;;;5069035;28;20020;-65
2021/03/15 05:05:55;;;;;;;1.25;0.50;;;;;;;;;;5069479;28;20024;-65
2021/03/15 05:08:25;;;;;;;0.30;0.28;;;;;;;;;;5068020;28;20024;-65
2021/03/15 05:10:52;;;;;;;0.63;0.55;;;;;;;;;;5068099;28;20060;-65
2021/03/15 05:13:18;;;;;;;0.77;0.45;;;;;;;;;;5068749;28;20028;-64
2021/03/15 05:15:45;;;;;;;0.47;0.47;;;;;;;;;;5068884;28;20031;-64
2021/03/15 05:18:14;;;;;;;1.08;0.60;;;;;;;;;;5068420;28;20106;-64
2021/03/15 05:20:45;;;;;;;0.80;0.40;;;;;;;;;;5068466;28;20028;-64
2021/03/15 05:23:12;;;;;;;0.63;0.55;;;;;;;;;;5068009;28;20032;-64
2021/03/15 05:25:39;;;;;;;0.55;0.30;;;;;;;;;;5068789;28;20029;-64
2021/03/15 05:28:06;;;;;;;0.50;0.50;;;;;;;;;;5067453;28;20491;-63
2021/03/15 05:30:34;;;;;;;0.20;0.20;;;;;;;;;;5067891;28;20349;-64
2021/03/15 05:33:01;;;;;;;2.28;0.40;;;;;;;;;;5067756;28;20017;-64
2021/03/15 05:35:28;;;;;;;0.68;0.60;;;;;;;;;;5068505;28;20036;-64
2021/03/15 05:37:54;;;;;;;0.57;0.57;;;;;;;;;;5077648;28;20032;-64
2021/03/15 05:40:21;;;;;;;0.20;0.20;;;;;;;;;;5087559;28;20028;-64
2021/03/15 05:42:51;;;;;;;0.40;0.38;;;;;;;;;;5088644;28;20028;-64
2021/03/15 05:45:30;;;;;;;0.28;0.20;;;;;;;;;;5088589;28;20028;-64
2021/03/15 05:48:02;;;;;;;1.60;0.77;;;;;;;;;;5088475;28;20510;-64
2021/03/15 05:50:31;;;;;;;0.50;0.47;;;;;;;;;;5088069;28;20100;-64
2021/03/15 05:53:00;;;;;;;0.47;0.20;;;;;;;;;;5088300;28;20047;-64
2021/03/15 05:55:26;;;;;;;0.35;0.30;;;;;;;;;;5088165;28;20431;-64
2021/03/15 05:58:01;;;;;;;0.30;0.30;;;;;;;;;;5087633;28;20051;-64
2021/03/15 06:00:30;;;;;;;1.10;0.28;;;;;;;;;;5086803;28;20031;-63
2021/03/15 06:03:02;;;;;;;0.40;0.40;;;;;;;;;;5087527;28;20150;-64
2021/03/15 06:05:29;;;;;;;0.40;0.40;;;;;;;;;;5088219;28;20474;-64
2021/03/15 06:08:03;;;;;;;0.57;0.55;;;;;;;;;;5088303;28;20028;-64
2021/03/15 06:10:29;;;;;;;;;;;;;;;;;;5087456;28;20089;-64
2021/03/15 06:13:02;;;;;;;0.40;0.40;;;;;;;;;;5087988;28;19904;-63
2021/03/15 06:15:37;;;;;;;0.28;0.20;;;;;;;;;;5071961;28;20016;-63
2021/03/15 06:18:04;;;;;;;0.43;0.43;;;;;;;;;;5068055;28;20028;-63
2021/03/15 06:20:31;;;;;;;0.75;0.30;;;;;;;;;;5066190;28;20122;-63
2021/03/15 06:22:59;;;;;;;0.30;0.30;;;;;;;;;;5068103;28;20104;-63
2021/03/15 06:25:25;;;;;;;0.20;0.20;;;;;;;;;;5067683;28;20404;-63
2021/03/15 06:27:52;;;;;;;0.38;0.30;;;;;;;;;;5066780;28;20020;-63
2021/03/15 06:30:18;;;;;;;1.13;0.30;;;;;;;;;;5066735;28;20035;-63
2021/03/15 06:32:47;;;;;;;0.52;0.45;;;;;;;;;;5067938;28;20082;-64
2021/03/15 06:35:13;;;;;;;0.47;0.35;;;;;;;;;;5066934;28;20036;-64
2021/03/15 06:37:39;;;;;;;0.20;0.20;;;;;;;;;;5068247;28;20024;-64
2021/03/15 06:40:06;;;;;;;0.28;0.28;;;;;;;;;;5066644;28;20510;-64
2021/03/15 06:42:34;;;;;;;0.63;0.40;;;;;;;;;;5067611;28;20060;-64
2021/03/15 06:45:00;;;;;;;0.40;0.30;;;;;;;;;;5067388;28;20064;-64
2021/03/15 06:47:26;;;;;;;0.20;0.20;;;;;;;;;;5068133;28;20384;-64
2021/03/15 06:49:54;;;;;;;0.30;0.30;;;;;;;;;;5067453;28;20025;-64
2021/03/15 06:52:20;;;;;;;0.77;0.68;;;;;;;;;;5066372;28;20052;-64
2021/03/15 06:54:46;;;;;;;0.20;0.20;;;;;;;;;;5067393;28;20074;-64
2021/03/15 06:57:13;;;;;;;0.32;0.32;;;;;;;;;;5073769;28;20486;-64
2021/03/15 06:59:49;;;;;;;1.58;0.30;;;;;;;;;;5067886;28;20137;-64
2021/03/15 07:02:22;;;;;;;1.05;0.85;;;;;;;;;;5081528;28;20420;-64
2021/03/15 07:04:49;;;;;;;2.10;0.57;;;;;;;;;;5075823;28;20032;-64
2021/03/15 07:07:41;;;;;;;1.88;0.60;;;;;;;;;;5085348;28;20284;-64
2021/03/15 07:10:15;;;;;;;1.15;0.85;;;;;;;;;;5073448;28;20044;-64
2021/03/15 07:12:41;;;;;;;;;;;;;;;;;;5076582;28;20115;-64
2021/03/15 07:15:07;;;;;;;0.65;0.50;;;;;;;;;;5072894;28;20462;-64
2021/03/15 07:17:33;;;;;;;1.05;0.73;;;;;;;;;;5066123;28;20028;-64
2021/03/15 07:19:59;;;;;;;1.52;1.42;;;;;;;;;;5071416;28;20024;-64
2021/03/15 07:22:27;;;;;;;1.70;1.25;;;;;;;;;;5075649;28;20036;-64
2021/03/15 07:25:04;;;;;;;1.48;1.10;;;;;;;;;;5078610;28;20024;-64
2021/03/15 07:27:31;;;;;;;0.95;0.80;;;;;;;;;;5068432;28;20040;-64
2021/03/15 07:29:57;;;;;;;0.98;0.70;;;;;;;;;;5072112;28;20046;-64
2021/03/15 07:32:43;;;;;;;1.10;1.00;;;;;;;;;;5079436;28;20111;-65
2021/03/15 07:35:23;;;;;;;4.05;2.85;;;;;;;;;;5061133;28;20031;-66
2021/03/15 07:37:50;;;;;;;2.53;2.10;;;;;;;;;;5071732;28;20792;-65
2021/03/15 07:40:28;;;;;;;4.88;3.70;;;;;;;;;;5074799;28;20036;-65
2021/03/15 07:43:20;;;;;;;2.65;2.20;;;;;;;;;;5073058;28;20040;-65
2021/03/15 07:45:47;;;;;;;3.75;2.30;;;;;;;;;;5059066;28;20052;-65
2021/03/15 07:48:19;;;;;;;2.47;2.13;;;;;;;;;;5068342;28;20506;-66
2021/03/15 07:50:59;;;;;;;4.93;2.85;;;;;;;;;;5071347;28;20511;-65
2021/03/15 07:53:43;;;;;;;4.10;2.03;;;;;;;;;;5075028;28;20038;-64
2021/03/15 07:56:10;;;;;;;4.37;2.90;;;;;;;;;;5070354;28;20123;-64
2021/03/15 07:58:43;;;;;;;6.82;3.22;;;;;;;;;;5063831;28;20040;-64
2021/03/15 08:01:09;;;;;;;4.95;2.42;;;;;;;;;;5063861;28;20101;-64
2021/03/15 08:03:42;;;;;;;4.45;3.00;;;;;;;;;;5069066;28;20028;-65
2021/03/15 08:06:09;;;;;;;3.65;3.03;;;;;;;;;;5066553;28;20055;-65
2021/03/15 08:08:35;;;;;;;2.92;1.92;;;;;;;;;;5068324;28;20119;-66
2021/03/15 08:11:02;;;;;;;3.80;2.22;;;;;;;;;;5066565;28;20080;-65
2021/03/15 08:13:29;;;;;;;1.40;1.30;;;;;;;;;;5061314;28;20017;-65
2021/03/15 08:15:58;;;;;;;1.92;1.83;;;;;;;;;;5063770;28;20114;-65
2021/03/15 08:18:25;;;;;;;4.10;2.03;;;;;;;;;;5065476;28;20081;-64
2021/03/15 08:21:17;;;;;;;2.63;2.08;;;;;;;;;;5065419;28;20040;-64
2021/03/15 08:23:44;;;;;;;4.75;1.95;;;;;;;;;;5066227;28;20032;-64
2021/03/15 08:26:12;;;;;;;3.00;1.88;;;;;;;;;;5065206;28;20031;-63
2021/03/15 08:28:39;;;;;;;3.72;1.88;;;;;;;;;;5067241;28;20032;-65
2021/03/15 08:31:44;;;;;;;2.83;1.88;;;;;;;;;;5063925;28;20119;-65
2021/03/15 08:34:10;;;;;;;4.25;2.00;;;;;;;;;;5061447;28;20052;-65
2021/03/15 08:36:43;;;;;;;3.28;2.15;;;;;;;;;;5059773;28;20036;-65
2021/03/15 08:39:28;;;;;;;3.83;2.47;;;;;;;;;;5069616;28;20040;-65
2021/03/15 08:42:17;;;;;;;1.85;1.52;;;;;;;;;;5072284;28;20040;-65
2021/03/15 08:44:44;;;;;;;3.33;1.33;;;;;;;;;;5061081;28;20151;-65
2021/03/15 08:47:11;;;;;;;2.97;1.73;;;;;;;;;;5066402;28;20431;-65
2021/03/15 08:49:41;;;;;;;2.17;1.35;;;;;;;;;;5062814;28;20040;-65
2021/03/15 08:52:11;;;;;;;5.90;3.03;;;;;;;;;;5071758;28;20033;-66
2021/03/15 08:54:37;;;;;;;5.88;2.58;;;;;;;;;;5069698;28;20028;-66
2021/03/15 08:57:03;;;;;;;3.25;1.70;;;;;;;;;;5066475;28;20363;-66
2021/03/15 08:59:31;;;;;;;3.60;2.03;;;;;;;;;;5067401;28;20056;-65
2021/03/15 09:02:00;;;;;;;3.53;1.92;;;;;;;;;;5069442;28;20423;-65
2021/03/15 09:04:31;;;;;;;4.07;2.08;;;;;;;;;;5065568;28;20293;-65
2021/03/15 09:06:57;;;;;;;2.55;2.03;;;;;;;;;;5061327;28;20047;-65
2021/03/15 09:09:26;;;;;;;2.40;1.98;;;;;;;;;;5062618;28;20032;-65
2021/03/15 09:11:54;;;;;;;3.33;2.33;;;;;;;;;;5062190;28;20371;-65
2021/03/15 09:14:20;;;;;;;8.10;1.80;;;;;;;;;;5069377;28;20063;-65
2021/03/15 09:16:49;;;;;;;1.67;1.30;;;;;;;;;;5064062;28;20028;-65
2021/03/15 09:19:24;;;;;;;2.00;1.60;;;;;;;;;;5067859;28;20721;-65
2021/03/15 09:21:51;;;;;;;2.10;1.38;;;;;;;;;;5068263;28;20076;-65
2021/03/15 09:24:36;;;;;;;3.05;1.27;;;;;;;;;;5060846;28;20051;-65
2021/03/15 09:27:02;;;;;;;1.60;1.05;;;;;;;;;;5066569;28;20213;-65
2021/03/15 09:29:30;;;;;;;1.80;1.63;;;;;;;;;;5070498;28;20025;-65
2021/03/15 09:32:03;;;;;;;2.28;1.88;;;;;;;;;;5065669;28;21533;-65
2021/03/15 09:34:29;;;;;;;1.40;1.30;;;;;;;;;;5065713;28;20029;-65
2021/03/15 09:36:56;;;;;;;3.80;1.65;;;;;;;;;;5068681;28;20096;-65
2021/03/15 09:39:23;;;;;;;1.63;1.10;;;;;;;;;;5057162;28;20082;-66
2021/03/15 09:41:50;;;;;;;1.85;1.00;;;;;;;;;;5066754;28;20094;-65
2021/03/15 09:44:22;;;;;;;5.32;1.38;;;;;;;;;;5066159;28;20036;-65
2021/03/15 09:46:52;;;;;;;1.13;0.95;;;;;;;;;;5066673;28;20028;-65
2021/03/15 09:49:38;;;;;;;2.20;1.83;;;;;;;;;;5065300;28;20086;-65
2021/03/15 09:52:11;;;;;;;3.97;1.90;;;;;;;;;;5066124;28;20094;-65
2021/03/15 09:54:42;;;;;;;3.30;1.25;;;;;;;;;;5061497;28;20209;-67
2021/03/15 09:57:08;;;;;;;4.20;1.67;;;;;;;;;;5065046;28;20041;-65
2021/03/15 09:59:34;;;;;;;2.08;1.13;;;;;;;;;;5064034;28;20052;-65
2021/03/15 10:02:00;;;;;;;1.15;1.05;;;;;;;;;;5065015;28;20048;-66
2021/03/15 10:04:37;;;;;;;4.32;1.63;;;;;;;;;;5063542;28;20035;-65
2021/03/15 10:07:05;;;;;;;1.95;1.65;;;;;;;;;;5068802;28;20032;-65
2021/03/15 10:09:32;;;;;;;4.80;1.90;;;;;;;;;;5064435;28;20041;-65
2021/03/15 10:11:59;;;;;;;2.47;1.73;;;;;;;;;;5072454;28;20044;-65
2021/03/15 10:14:25;;;;;;;0.95;0.90;;;;;;;;;;5083223;28;20491;-65
2021/03/15 10:16:52;;;;;;;3.28;2.03;;;;;;;;;;5077827;28;20039;-66
2021/03/15 10:19:22;;;;;;;1.38;1.27;;;;;;;;;;5075174;28;20706;-67
2021/03/15 10:21:49;;;;;;;3.03;1.40;;;;;;;;;;5066242;28;20040;-65
2021/03/15 10:24:15;;;;;;;2.25;1.33;;;;;;;;;;5070042;28;20028;-65
2021/03/15 10:26:42;;;;;;;2.08;1.70;;;;;;;;;;5069906;28;20074;-66
2021/03/15 10:29:09;;;;;;;1.58;1.48;;;;;;;;;;5060912;28;20681;-66
2021/03/15 10:31:38;;;;;;;1.88;1.25;;;;;;;;;;5075992;28;20103;-65
2021/03/15 10:34:08;;;;;;;1.63;1.33;;;;;;;;;;5058132;28;20060;-65
2021/03/15 10:36:36;;;;;;;2.00;1.77;;;;;;;;;;5068711;28;20035;-66
2021/03/15 10:39:02;;;;;;;2.58;1.75;;;;;;;;;;5075023;28;20032;-66
2021/03/15 10:41:28;;;;;;;2.42;2.22;;;;;;;;;;5069420;28;20127;-66
2021/03/15 10:43:56;;;;;;;1.63;1.30;;;;;;;;;;5066024;28;20030;-66
2021/03/15 10:46:24;;;;;;;2.42;1.40;;;;;;;;;;5060890;28;20040;-65
2021/03/15 10:48:50;;;;;;;2.58;1.02;;;;;;;;;;5071925;28;20028;-66
2021/03/15 10:51:17;;;;;;;1.83;1.55;;;;;;;;;;5068576;28;20039;-65
2021/03/15 10:53:52;;;;;;;1.70;1.20;;;;;;;;;;5070587;28;20091;-65
2021/03/15 10:56:19;;;;;;;4.65;1.88;;;;;;;;;;5067137;28;20197;-65
2021/03/15 10:58:45;;;;;;;1.40;1.27;;;;;;;;;;5071882;28;20053;-65
2021/03/15 11:01:11;;;;;;;3.70;1.63;;;;;;;;;;5069062;28;20796;-65
2021/03/15 11:03:37;;;;;;;1.30;1.05;;;;;;;;;;5070897;28;20059;-66
2021/03/15 11:06:16;;;;;;;1.30;1.20;;;;;;;;;;5070259;28;20024;-64
2021/03/15 11:08:42;;;;;;;3.22;2.20;;;;;;;;;;5078213;28;20035;-66
2021/03/15 11:11:19;;;;;;;2.58;1.27;;;;;;;;;;5075393;28;20085;-63
2021/03/15 11:13:46;;;;;;;1.13;1.02;;;;;;;;;;5082244;28;20123;-64
2021/03/15 11:16:17;;;;;;;1.83;1.33;;;;;;;;;;5076502;28;20025;-65
2021/03/15 11:18:44;;;;;;;16.45;3.38;;;;;;;;;;5073967;28;20630;-64
2021/03/15 11:21:11;;;;;;;2.65;1.20;;;;;;;;;;5080499;28;20138;-64
2021/03/15 11:23:38;;;;;;;4.07;1.48;;;;;;;;;;5082100;28;20028;-65
2021/03/15 11:26:05;;;;;;;2.72;1.30;;;;;;;;;;5072174;28;20071;-64
2021/03/15 11:28:36;;;;;;;3.05;1.20;;;;;;;;;;5067106;28;20562;-64
2021/03/15 11:31:02;;;;;;;2.13;1.27;;;;;;;;;;5068009;28;20361;-64
2021/03/15 11:33:28;;;;;;;3.40;1.52;;;;;;;;;;5071988;28;20068;-70
2021/03/15 11:35:55;;;;;;;2.58;1.45;;;;;;;;;;5086506;28;20028;-64
2021/03/15 11:38:22;;;;;;;1.92;1.50;;;;;;;;;;5088020;28;20040;-64
2021/03/15 11:40:48;;;;;;;3.58;1.50;;;;;;;;;;5079571;28;20135;-64
2021/03/15 11:43:14;;;;;;;2.40;1.35;;;;;;;;;;5075459;28;20485;-64
2021/03/15 11:45:40;;;;;;;2.83;1.55;;;;;;;;;;5088098;28;20116;-64
2021/03/15 11:48:08;;;;;;;2.08;1.23;;;;;;;;;;5087877;28;20107;-64
2021/03/15 11:50:35;;;;;;;2.35;1.83;;;;;;;;;;5088383;28;20032;-64
2021/03/15 11:53:01;;;;;;;1.75;1.35;;;;;;;;;;5088138;28;20405;-65
2021/03/15 11:55:27;;;;;;;1.52;1.40;;;;;;;;;;5088352;28;20027;-64
2021/03/15 11:57:54;;;;;;;0.98;0.73;;;;;;;;;;5087653;28;20412;-64
2021/03/15 12:00:20;;;;;;;1.48;1.17;;;;;;;;;;5088334;28;20048;-64
2021/03/15 12:02:50;;;;;;;1.88;0.70;;;;;;;;;;5083128;28;20028;-64
2021/03/15 12:05:17;;;;;;;1.35;1.23;;;;;;;;;;5063008;28;20024;-64
2021/03/15 12:07:43;;;;;;;1.00;0.90;;;;;;;;;;5068360;28;20536;-65
2021/03/15 12:10:11;;;;;;;1.17;1.10;;;;;;;;;;5067902;28;20035;-64
2021/03/15 12:12:38;;;;;;;0.80;0.70;;;;;;;;;;5068552;28;20039;-65
2021/03/15 12:15:05;;;;;;;2.38;0.88;;;;;;;;;;5070189;28;20062;-65
2021/03/15 12:17:32;;;;;;;1.00;0.70;;;;;;;;;;5079657;28;20027;-65
2021/03/15 12:19:59;;;;;;;0.93;0.85;;;;;;;;;;5068262;28;20576;-66
2021/03/15 12:22:25;;;;;;;0.70;0.70;;;;;;;;;;5066324;28;20123;-65
2021/03/15 12:24:51;;;;;;;0.68;0.68;;;;;;;;;;5068157;28;20033;-66
2021/03/15 12:27:17;;;;;;;1.10;1.00;;;;;;;;;;5066185;28;20056;-66
2021/03/15 12:29:44;;;;;;;0.88;0.68;;;;;;;;;;5067211;28;20029;-66
2021/03/15 12:32:10;;;;;;;1.25;1.00;;;;;;;;;;5071441;28;20090;-66
2021/03/15 12:34:36;;;;;;;0.85;0.85;;;;;;;;;;5056388;28;20043;-66
2021/03/15 12:37:03;;;;;;;2.50;0.95;;;;;;;;;;5056093;28;20032;-66
2021/03/15 12:39:29;;;;;;;1.25;1.15;;;;;;;;;;5061229;28;20521;-65
2021/03/15 12:41:55;;;;;;;3.38;1.25;;;;;;;;;;5063491;28;20047;-69
2021/03/15 12:44:21;;;;;;;0.98;0.88;;;;;;;;;;5068479;28;20028;-65
2021/03/15 12:46:47;;;;;;;2.80;0.52;;;;;;;;;;5062787;28;20998;-65
2021/03/15 12:49:14;;;;;;;2.17;0.70;;;;;;;;;;5058706;28;20037;-67
2021/03/15 12:51:40;;;;;;;1.60;1.20;;;;;;;;;;5066283;28;20039;-66
2021/03/15 12:54:07;;;;;;;3.90;1.15;;;;;;;;;;5067992;28;20162;-65
2021/03/15 12:56:33;;;;;;;2.13;1.02;;;;;;;;;;5069183;28;20113;-65
2021/03/15 12:58:59;;;;;;;2.45;1.13;;;;;;;;;;5066263;28;20041;-65
2021/03/15 13:01:25;;;;;;;0.93;0.90;;;;;;;;;;5066682;28;20110;-64
2021/03/15 13:03:53;;;;;;;0.88;0.60;;;;;;;;;;5067339;28;20109;-67
2021/03/15 13:06:19;;;;;;;2.38;1.48;;;;;;;;;;5066630;28;20144;-65
2021/03/15 13:08:46;;;;;;;1.15;0.90;;;;;;;;;;5063982;28;20037;-64
2021/03/15 13:11:12;;;;;;;0.70;0.70;;;;;;;;;;5071988;28;20044;-64
2021/03/15 13:13:38;;;;;;;0.98;0.73;;;;;;;;;;5067329;28;20039;-64
2021/03/15 13:16:05;;;;;;;3.58;0.95;;;;;;;;;;5067911;28;20078;-64
2021/03/15 13:18:32;;;;;;;0.93;0.70;;;;;;;;;;5069751;28;20505;-64
2021/03/15 13:20:58;;;;;;;0.77;0.38;;;;;;;;;;5064344;28;20032;-64
2021/03/15 13:23:24;;;;;;;0.80;0.80;;;;;;;;;;5060290;28;20039;-64
2021/03/15 13:25:51;;;;;;;1.23;0.75;;;;;;;;;;5071117;28;20378;-64
2021/03/15 13:28:17;;;;;;;1.70;0.88;;;;;;;;;;5071929;28;20081;-64
2021/03/15 13:30:43;;;;;;;1.92;0.77;;;;;;;;;;5067772;28;20029;-64
2021/03/15 13:33:12;;;;;;;1.17;0.70;;;;;;;;;;5058897;28;20082;-64
2021/03/15 13:35:39;;;;;;;1.73;1.05;;;;;;;;;;5064499;28;20574;-64
2021/03/15 13:38:07;;;;;;;2.22;1.60;;;;;;;;;;5067519;28;20032;-66
2021/03/15 13:40:33;;;;;;;2.45;0.75;;;;;;;;;;5064793;28;20032;-66
2021/03/15 13:42:59;;;;;;;2.05;1.30;;;;;;;;;;5062036;28;20153;-66
2021/03/15 13:45:25;;;;;;;1.52;1.00;;;;;;;;;;5068171;28;20020;-69
2021/03/15 13:47:51;;;;;;;3.35;1.17;;;;;;;;;;5062802;28;20032;-66
2021/03/15 13:50:18;;;;;;;1.30;1.10;;;;;;;;;;5061904;28;20078;-66
2021/03/15 13:52:44;;;;;;;1.48;0.93;;;;;;;;;;5058533;28;20528;-67
2021/03/15 13:55:10;;;;;;;0.68;0.68;;;;;;;;;;5071296;28;20391;-66
2021/03/15 13:57:37;;;;;;;4.07;0.98;;;;;;;;;;5070779;28;20028;-67
2021/03/15 14:00:06;;;;;;;3.35;1.30;;;;;;;;;;5067011;28;20041;-66
2021/03/15 14:02:32;;;;;;;2.03;0.73;;;;;;;;;;5063793;28;20101;-66
2021/03/15 14:04:59;;;;;;;0.95;0.82;;;;;;;;;;5068489;28;20020;-65
2021/03/15 14:07:25;;;;;;;1.75;0.52;;;;;;;;;;5066809;28;20060;-66
2021/03/15 14:09:51;;;;;;;0.85;0.60;;;;;;;;;;5072051;28;20032;-66
2021/03/15 14:12:17;;;;;;;1.55;0.80;;;;;;;;;;5064432;28;20045;-65
2021/03/15 14:14:43;;;;;;;0.85;0.85;;;;;;;;;;5072584;28;20101;-65
2021/03/15 14:17:10;;;;;;;4.68;2.30;;;;;;;;;;5071116;28;20041;-65
2021/03/15 14:19:36;;;;;;;4.78;2.45;;;;;;;;;;5071809;28;20032;-65
2021/03/15 14:22:02;;;;;;;3.60;1.70;;;;;;;;;;5060052;28;20032;-66
2021/03/15 14:24:28;;;;;;;1.25;0.90;;;;;;;;;;5064792;28;20015;-66
2021/03/15 14:26:54;;;;;;;1.20;1.10;;;;;;;;;;5064720;28;20024;-65
2021/03/15 14:29:20;;;;;;;1.70;0.90;;;;;;;;;;5070878;28;20036;-65
2021/03/15 14:31:46;;;;;;;2.60;1.40;;;;;;;;;;5068782;28;22086;-65
2021/03/15 14:34:12;;;;;;;1.25;1.15;;;;;;;;;;5068545;28;20043;-65
2021/03/15 14:36:38;;;;;;;0.77;0.70;;;;;;;;;;5062346;28;20044;-65
2021/03/15 14:39:05;;;;;;;1.75;1.00;;;;;;;;;;5065780;28;20027;-64
2021/03/15 14:41:32;;;;;;;1.15;1.05;;;;;;;;;;5071891;28;20684;-65
2021/03/15 14:43:58;;;;;;;2.35;1.35;;;;;;;;;;5069335;28;20510;-65
2021/03/15 14:46:24;;;;;;;2.67;0.50;;;;;;;;;;5066571;28;20040;-65
2021/03/15 14:48:50;;;;;;;0.93;0.50;;;;;;;;;;5066358;28;20036;-65